Terminal Aerodrome Forecast
Issued by NWS

Home | Current Version | Previous Version | Text Only | Print | Product List | Glossary On
Versions: 1 2 3 4 5 6 7 8 9 10 11 12 13 14 15
050
FTUS43 KDTX 142320
TAFMBS
TAF
KMBS 142320Z 1500/1524 16009KT P6SM FEW040 BKN250
     FM150100 14006KT P6SM SCT080 OVC150
     FM150600 14008KT 6SM -SN SCT035 OVC060
     FM151100 15009KT P6SM -SN BKN018 OVC045
     FM151600 20009KT P6SM BKN022 OVC045=

USA.gov is the U.S. government's official web portal to all federal, state and local government web resources and services.